createdAt,value
2018-12-20T00:00:42.167Z,4.70
2018-12-20T00:03:10.327Z,4.80
2018-12-20T00:05:38.514Z,4.60
2018-12-20T00:08:06.797Z,4.60
2018-12-20T00:10:35.184Z,4.60
2018-12-20T00:13:03.391Z,4.60
2018-12-20T00:15:34.702Z,4.60
2018-12-20T00:18:03.896Z,4.60
2018-12-20T00:20:32.061Z,4.60
2018-12-20T00:23:00.751Z,4.60
2018-12-20T00:25:30.168Z,4.70
2018-12-20T00:28:00.332Z,4.70
2018-12-20T00:30:28.513Z,4.60
2018-12-20T00:32:57.746Z,4.70
2018-12-20T00:35:26.806Z,4.60
2018-12-20T00:37:55.065Z,4.50
2018-12-20T00:40:23.393Z,4.70
2018-12-20T00:42:51.698Z,4.70
2018-12-20T00:45:20.342Z,4.70
2018-12-20T00:47:50.676Z,4.70
2018-12-20T00:50:19.007Z,4.70
2018-12-20T00:52:47.232Z,4.60
2018-12-20T00:55:15.589Z,4.70
2018-12-20T00:57:43.831Z,4.90
2018-12-20T01:00:12.204Z,4.70
2018-12-20T01:02:41.357Z,4.50
2018-12-20T01:05:09.794Z,4.60
2018-12-20T01:07:38.030Z,4.70
2018-12-20T01:10:06.959Z,4.70
2018-12-20T01:12:35.203Z,4.70
2018-12-20T01:15:05.169Z,4.60
2018-12-20T01:17:38.709Z,4.70
2018-12-20T01:20:09.139Z,4.70
2018-12-20T01:22:37.644Z,4.50
2018-12-20T01:25:06.310Z,4.40
2018-12-20T01:27:35.496Z,4.60
2018-12-20T01:30:06.294Z,4.60
2018-12-20T01:32:34.691Z,4.60
2018-12-20T01:35:03.216Z,4.70
2018-12-20T01:37:31.588Z,4.70
2018-12-20T01:40:00.493Z,4.70
2018-12-20T01:42:29.057Z,4.60
2018-12-20T01:44:57.430Z,4.60
2018-12-20T01:47:26.478Z,4.50
2018-12-20T01:49:54.833Z,4.50
2018-12-20T01:52:23.030Z,4.50
2018-12-20T01:54:51.310Z,4.50
2018-12-20T01:57:19.623Z,4.50
2018-12-20T01:59:49.861Z,4.40
2018-12-20T02:02:18.234Z,4.50
2018-12-20T02:04:46.520Z,4.60
2018-12-20T02:07:15.006Z,4.60
2018-12-20T02:09:43.469Z,4.60
2018-12-20T02:12:11.722Z,4.60
2018-12-20T02:14:39.988Z,4.60
2018-12-20T02:17:08.584Z,4.60
2018-12-20T02:19:39.781Z,4.60
2018-12-20T02:22:08.035Z,4.70
2018-12-20T02:24:37.226Z,4.60
2018-12-20T02:27:05.584Z,4.50
2018-12-20T02:29:34.168Z,4.50
2018-12-20T02:32:02.489Z,4.40
2018-12-20T02:34:31.775Z,4.50
2018-12-20T02:36:59.977Z,4.50
2018-12-20T02:39:29.052Z,4.50
2018-12-20T02:41:57.364Z,4.60
2018-12-20T02:44:25.543Z,4.60
2018-12-20T02:46:53.774Z,4.60
2018-12-20T02:49:22.046Z,4.50
2018-12-20T02:51:50.507Z,4.60
2018-12-20T02:54:18.901Z,4.60
2018-12-20T02:56:47.319Z,4.50
2018-12-20T02:59:15.723Z,4.50
2018-12-20T03:01:45.282Z,4.50
2018-12-20T03:04:13.588Z,4.60
2018-12-20T03:06:41.750Z,4.50
2018-12-20T03:09:10.064Z,4.40
2018-12-20T03:11:39.193Z,4.50
2018-12-20T03:14:07.658Z,4.50
2018-12-20T03:16:35.916Z,4.50
2018-12-20T03:19:04.522Z,4.40
2018-12-20T03:21:33.424Z,4.50
2018-12-20T03:24:01.719Z,4.60
2018-12-20T03:26:29.904Z,4.50
2018-12-20T03:28:58.073Z,4.50
2018-12-20T03:31:27.297Z,4.40
2018-12-20T03:33:57.433Z,4.40
2018-12-20T03:36:25.803Z,4.50
2018-12-20T03:38:54.009Z,4.40
2018-12-20T03:41:22.214Z,4.60
2018-12-20T03:43:50.463Z,4.70
2018-12-20T03:46:18.653Z,4.60
2018-12-20T03:48:46.992Z,4.60
2018-12-20T03:51:15.216Z,4.60
2018-12-20T03:53:43.516Z,4.60
2018-12-20T03:56:18.582Z,4.50
2018-12-20T03:58:47.053Z,4.40
2018-12-20T04:01:15.770Z,4.50
2018-12-20T04:03:44.024Z,4.50
2018-12-20T04:06:12.339Z,4.40
2018-12-20T04:08:40.630Z,4.40
2018-12-20T04:11:08.813Z,4.60
2018-12-20T04:13:36.981Z,4.70
2018-12-20T04:16:05.536Z,4.60
2018-12-20T04:18:33.765Z,4.60
2018-12-20T04:21:02.166Z,4.60
2018-12-20T04:23:30.494Z,4.60
2018-12-20T04:25:58.632Z,4.60
2018-12-20T04:28:26.976Z,4.60
2018-12-20T04:30:55.159Z,4.70
2018-12-20T04:33:23.428Z,4.60
2018-12-20T04:35:51.976Z,4.70
2018-12-20T04:38:20.263Z,4.70
2018-12-20T04:40:48.518Z,4.70
2018-12-20T04:43:17.077Z,4.70
2018-12-20T04:45:46.820Z,4.70
2018-12-20T04:48:16.300Z,4.70
2018-12-20T04:50:44.729Z,4.70
2018-12-20T04:53:12.952Z,4.80
2018-12-20T04:55:41.122Z,4.80
2018-12-20T04:58:10.111Z,4.80
2018-12-20T05:00:40.559Z,4.80
2018-12-20T05:03:08.635Z,4.80
2018-12-20T05:05:37.017Z,4.90
2018-12-20T05:08:05.264Z,4.90
2018-12-20T05:10:33.420Z,4.90
2018-12-20T05:13:01.932Z,4.80
2018-12-20T05:15:30.251Z,4.80
2018-12-20T05:17:58.479Z,4.90
2018-12-20T05:20:26.770Z,4.80
2018-12-20T05:22:54.975Z,4.80
2018-12-20T05:25:23.245Z,4.90
2018-12-20T05:27:52.341Z,4.90
2018-12-20T05:30:20.773Z,5.00
2018-12-20T05:32:49.088Z,4.90
2018-12-20T05:35:17.263Z,5.00
2018-12-20T05:37:45.719Z,5.00
2018-12-20T05:40:14.199Z,4.90
2018-12-20T05:42:44.018Z,4.90
2018-12-20T05:45:12.645Z,5.00
2018-12-20T05:47:40.956Z,5.00
2018-12-20T05:50:09.392Z,5.00
2018-12-20T05:52:37.725Z,4.90
2018-12-20T05:55:07.034Z,4.90
2018-12-20T05:57:35.204Z,5.00
2018-12-20T06:00:04.113Z,5.00
2018-12-20T06:02:33.220Z,4.90
2018-12-20T06:05:03.740Z,4.90
2018-12-20T06:07:32.206Z,4.90
2018-12-20T06:10:00.528Z,4.90
2018-12-20T06:12:28.745Z,4.90
2018-12-20T06:14:57.059Z,4.80
2018-12-20T06:17:25.293Z,4.90
2018-12-20T06:19:53.730Z,4.90
2018-12-20T06:22:21.993Z,5.00
2018-12-20T06:24:50.176Z,5.10
2018-12-20T06:27:20.183Z,5.00
2018-12-20T06:29:48.357Z,5.10
2018-12-20T06:32:16.683Z,5.00
2018-12-20T06:34:44.891Z,4.90
2018-12-20T06:37:13.055Z,4.90
2018-12-20T06:39:42.248Z,4.90
2018-12-20T06:42:12.283Z,4.90
2018-12-20T06:44:47.572Z,4.80
2018-12-20T06:47:17.016Z,4.90
2018-12-20T06:49:45.187Z,4.80
2018-12-20T06:52:13.469Z,4.90
2018-12-20T06:54:41.696Z,4.90
2018-12-20T06:57:09.866Z,4.80
2018-12-20T06:59:38.048Z,4.80
2018-12-20T07:02:06.398Z,4.90
2018-12-20T07:04:34.527Z,5.00
2018-12-20T07:07:03.675Z,4.90
2018-12-20T07:09:31.922Z,5.00
2018-12-20T07:12:00.098Z,4.90
2018-12-20T07:14:28.268Z,5.00
2018-12-20T07:16:56.437Z,5.10
2018-12-20T07:19:24.696Z,5.00
2018-12-20T07:21:52.882Z,5.00
2018-12-20T07:24:21.125Z,5.00
2018-12-20T07:26:49.646Z,5.10
2018-12-20T07:29:17.821Z,5.00
2018-12-20T07:31:46.172Z,5.00
2018-12-20T07:34:16.205Z,5.10
2018-12-20T07:36:45.343Z,5.20
2018-12-20T07:39:14.017Z,5.10
2018-12-20T07:41:44.186Z,5.30
2018-12-20T07:44:13.208Z,5.30
2018-12-20T07:46:41.473Z,5.30
2018-12-20T07:49:09.941Z,5.30
2018-12-20T07:51:38.488Z,5.40
2018-12-20T07:54:06.623Z,5.40
2018-12-20T07:56:34.888Z,5.50
2018-12-20T07:59:03.117Z,5.40
2018-12-20T08:01:31.279Z,5.40
2018-12-20T08:03:59.435Z,5.40
2018-12-20T08:06:29.597Z,5.30
2018-12-20T08:08:57.969Z,5.30
2018-12-20T08:11:26.144Z,5.30
2018-12-20T08:13:54.322Z,5.30
2018-12-20T08:16:22.533Z,5.40
2018-12-20T08:18:51.830Z,5.40
2018-12-20T08:21:20.969Z,5.30
2018-12-20T08:23:49.132Z,5.30
2018-12-20T08:26:17.372Z,5.30
2018-12-20T08:28:45.531Z,5.30
2018-12-20T08:31:13.735Z,5.30
2018-12-20T08:33:41.999Z,5.30
2018-12-20T08:36:10.226Z,5.30
2018-12-20T08:38:38.468Z,5.30
2018-12-20T08:41:09.116Z,5.50
2018-12-20T08:43:37.941Z,5.50
2018-12-20T08:46:06.421Z,5.50
2018-12-20T08:48:34.865Z,5.60
2018-12-20T08:51:03.441Z,5.50
2018-12-20T08:53:31.624Z,5.60
2018-12-20T08:55:59.867Z,5.60
2018-12-20T08:58:28.045Z,5.60
2018-12-20T09:00:56.240Z,5.60
2018-12-20T09:03:24.405Z,5.70
2018-12-20T09:05:52.621Z,5.80
2018-12-20T09:08:20.758Z,5.70
2018-12-20T09:10:48.950Z,5.60
2018-12-20T09:13:17.124Z,5.60
2018-12-20T09:15:45.313Z,5.70
2018-12-20T09:18:13.510Z,5.70
2018-12-20T09:20:41.723Z,5.70
2018-12-20T09:23:09.908Z,5.70
2018-12-20T09:25:38.165Z,5.70
2018-12-20T09:28:06.345Z,5.80
2018-12-20T09:30:34.505Z,5.80
2018-12-20T09:33:03.034Z,5.80
2018-12-20T09:35:31.292Z,5.80
2018-12-20T09:38:01.116Z,5.90
2018-12-20T09:40:30.100Z,5.90
2018-12-20T09:42:58.263Z,5.70
2018-12-20T09:45:26.455Z,5.70
2018-12-20T09:47:58.867Z,5.60
2018-12-20T09:50:28.066Z,5.60
2018-12-20T09:52:56.877Z,5.50
2018-12-20T09:55:25.048Z,5.50
2018-12-20T09:57:53.289Z,5.50
2018-12-20T10:00:21.519Z,5.50
2018-12-20T10:02:50.542Z,5.50
2018-12-20T10:05:18.726Z,5.60
2018-12-20T10:07:47.488Z,5.60
2018-12-20T10:10:15.661Z,5.50
2018-12-20T10:12:44.217Z,5.60
2018-12-20T10:15:12.438Z,5.60
2018-12-20T10:17:40.699Z,5.60
2018-12-20T10:20:11.770Z,5.60
2018-12-20T10:22:39.936Z,5.60
2018-12-20T10:25:09.068Z,5.60
2018-12-20T10:27:37.280Z,5.60
2018-12-20T10:30:06.324Z,5.60
2018-12-20T10:32:34.944Z,5.70
2018-12-20T10:35:03.298Z,5.70
2018-12-20T10:37:31.536Z,5.70
2018-12-20T10:39:59.709Z,5.70
2018-12-20T10:42:27.885Z,5.60
2018-12-20T10:44:56.636Z,5.60
2018-12-20T10:47:29.244Z,5.60
2018-12-20T10:49:56.701Z,5.60
2018-12-20T10:52:24.857Z,5.70
2018-12-20T10:54:53.081Z,5.70
2018-12-20T10:57:21.240Z,5.80
2018-12-20T10:59:49.402Z,5.80
2018-12-20T11:02:23.125Z,5.70
2018-12-20T11:04:56.683Z,5.70
2018-12-20T11:07:31.247Z,5.70
2018-12-20T11:10:04.913Z,5.70
2018-12-20T11:12:38.692Z,5.70
2018-12-20T11:15:07.193Z,5.70
2018-12-20T11:17:37.493Z,5.80
2018-12-20T11:20:05.741Z,5.80
2018-12-20T11:22:34.190Z,5.80
2018-12-20T11:25:02.659Z,5.80
2018-12-20T11:27:30.893Z,5.80
2018-12-20T11:29:59.072Z,5.70
2018-12-20T11:32:27.303Z,5.80
2018-12-20T11:34:55.488Z,5.80
2018-12-20T11:37:23.634Z,5.80
2018-12-20T11:39:59.446Z,5.80
2018-12-20T11:42:22.907Z,5.80
2018-12-20T11:44:51.061Z,5.90
2018-12-20T11:47:24.577Z,5.80
2018-12-20T11:49:52.752Z,5.80
2018-12-20T11:52:20.960Z,5.90
2018-12-20T11:54:49.102Z,5.90
2018-12-20T11:57:17.251Z,5.90
2018-12-20T11:59:45.500Z,6.00
2018-12-20T12:02:13.647Z,6.00
2018-12-20T12:04:41.788Z,6.00
2018-12-20T12:07:10.046Z,6.00
2018-12-20T12:09:38.216Z,6.00
2018-12-20T12:12:11.541Z,6.00
2018-12-20T12:14:39.770Z,6.10
2018-12-20T12:17:09.203Z,6.10
2018-12-20T12:19:37.353Z,6.20
2018-12-20T12:22:05.591Z,6.20
2018-12-20T12:24:33.800Z,6.20
2018-12-20T12:27:02.037Z,6.30
2018-12-20T12:29:30.246Z,6.20
2018-12-20T12:31:58.465Z,6.30
2018-12-20T12:34:26.660Z,6.30
2018-12-20T12:36:55.445Z,6.30
2018-12-20T12:39:23.634Z,6.40
2018-12-20T12:41:51.773Z,6.40
2018-12-20T12:44:19.940Z,6.30
2018-12-20T12:46:48.216Z,6.30
2018-12-20T12:49:16.571Z,6.30
2018-12-20T12:51:52.898Z,6.30
2018-12-20T12:54:15.639Z,6.30
2018-12-20T12:56:43.936Z,6.30
2018-12-20T12:59:12.129Z,6.30
2018-12-20T13:01:40.317Z,6.40
2018-12-20T13:04:08.584Z,6.40
2018-12-20T13:06:36.842Z,6.30
2018-12-20T13:09:06.600Z,6.40
2018-12-20T13:11:34.880Z,6.40
2018-12-20T13:14:03.032Z,6.40
2018-12-20T13:16:31.375Z,6.40
2018-12-20T13:18:59.702Z,6.40
2018-12-20T13:21:27.983Z,6.40
2018-12-20T13:23:56.276Z,6.50
2018-12-20T13:26:24.558Z,6.70
2018-12-20T13:28:52.782Z,6.70
2018-12-20T13:31:20.959Z,6.80
2018-12-20T13:33:49.108Z,6.90
2018-12-20T13:36:17.543Z,6.90
2018-12-20T13:38:45.729Z,6.70
2018-12-20T13:41:13.896Z,6.60
2018-12-20T13:43:42.287Z,6.60
2018-12-20T13:46:10.460Z,6.60
2018-12-20T13:48:38.632Z,6.60
2018-12-20T13:51:06.886Z,6.60
2018-12-20T13:53:35.069Z,6.60
2018-12-20T13:56:03.318Z,6.60
2018-12-20T13:58:31.548Z,6.60
2018-12-20T14:01:00.076Z,6.60
2018-12-20T14:03:28.305Z,6.50
2018-12-20T14:05:56.558Z,6.60
2018-12-20T14:08:24.721Z,6.60
2018-12-20T14:10:52.863Z,6.50
2018-12-20T14:13:21.068Z,6.50
2018-12-20T14:15:49.222Z,6.60
2018-12-20T14:18:19.307Z,6.60
2018-12-20T14:20:47.435Z,6.60
2018-12-20T14:23:15.612Z,6.60
2018-12-20T14:25:43.902Z,6.70
2018-12-20T14:28:12.176Z,6.70
2018-12-20T14:30:40.394Z,6.60
2018-12-20T14:33:08.593Z,6.60
2018-12-20T14:35:36.806Z,6.60
2018-12-20T14:38:04.988Z,6.50
2018-12-20T14:40:33.164Z,6.50
2018-12-20T14:43:01.358Z,6.60
2018-12-20T14:45:29.524Z,6.60
2018-12-20T14:48:00.734Z,6.50
2018-12-20T14:50:29.067Z,6.50
2018-12-20T14:52:57.372Z,6.50
2018-12-20T14:55:25.671Z,6.50
2018-12-20T14:57:53.920Z,6.50
2018-12-20T15:00:22.280Z,6.50
2018-12-20T15:02:53.597Z,6.40
2018-12-20T15:05:21.740Z,6.40
2018-12-20T15:07:50.011Z,6.50
2018-12-20T15:10:18.300Z,6.50
2018-12-20T15:12:46.466Z,6.40
2018-12-20T15:15:14.611Z,6.40
2018-12-20T15:17:46.256Z,6.40
2018-12-20T15:20:14.512Z,6.40
2018-12-20T15:22:42.762Z,6.50
2018-12-20T15:25:10.925Z,6.40
2018-12-20T15:27:39.380Z,6.30
2018-12-20T15:30:09.308Z,6.30
2018-12-20T15:32:37.536Z,6.40
2018-12-20T15:35:07.171Z,6.40
2018-12-20T15:37:35.323Z,6.40
2018-12-20T15:40:04.656Z,6.40
2018-12-20T15:42:32.805Z,6.40
2018-12-20T15:45:01.061Z,6.40
2018-12-20T15:47:29.345Z,6.40
2018-12-20T15:49:58.686Z,6.40
2018-12-20T15:52:26.835Z,6.50
2018-12-20T15:54:55.005Z,6.50
2018-12-20T15:57:23.156Z,6.50
2018-12-20T15:59:51.300Z,6.40
2018-12-20T16:02:20.509Z,6.30
2018-12-20T16:04:49.467Z,6.40
2018-12-20T16:07:17.622Z,6.30
2018-12-20T16:09:45.792Z,6.30
2018-12-20T16:12:14.573Z,6.30
2018-12-20T16:14:42.781Z,6.20
2018-12-20T16:17:11.070Z,6.20
2018-12-20T16:19:39.224Z,6.20
2018-12-20T16:22:07.461Z,6.10
2018-12-20T16:24:35.688Z,6.20
2018-12-20T16:27:03.920Z,6.10
2018-12-20T16:29:32.140Z,6.00
2018-12-20T16:32:00.300Z,6.10
2018-12-20T16:34:28.454Z,6.10
2018-12-20T16:36:56.608Z,6.00
2018-12-20T16:39:24.891Z,6.20
2018-12-20T16:41:53.193Z,6.30
2018-12-20T16:44:21.404Z,6.40
2018-12-20T16:46:49.671Z,6.50
2018-12-20T16:49:17.820Z,6.40
2018-12-20T16:51:45.995Z,6.50
2018-12-20T16:54:14.329Z,6.30
2018-12-20T16:56:42.500Z,6.30
2018-12-20T16:59:10.665Z,6.40
2018-12-20T17:01:39.145Z,6.40
2018-12-20T17:04:07.272Z,6.50
2018-12-20T17:06:35.610Z,6.20
2018-12-20T17:09:05.204Z,6.10
2018-12-20T17:11:33.471Z,6.10
2018-12-20T17:14:02.624Z,6.10
2018-12-20T17:16:30.869Z,6.10
2018-12-20T17:18:59.049Z,6.20
2018-12-20T17:21:27.362Z,6.20
2018-12-20T17:23:55.568Z,6.20
2018-12-20T17:26:23.749Z,6.20
2018-12-20T17:28:51.887Z,6.30
2018-12-20T17:31:20.183Z,6.30
2018-12-20T17:33:48.336Z,6.40
2018-12-20T17:36:16.627Z,6.40
2018-12-20T17:38:44.796Z,6.40
2018-12-20T17:41:12.971Z,6.40
2018-12-20T17:43:41.227Z,6.40
2018-12-20T17:46:09.384Z,6.30
2018-12-20T17:48:37.868Z,6.30
2018-12-20T17:51:06.024Z,6.30
2018-12-20T17:53:34.182Z,6.30
2018-12-20T17:56:02.599Z,6.40
2018-12-20T17:58:30.807Z,6.20
2018-12-20T18:00:58.991Z,6.20
2018-12-20T18:03:27.315Z,6.20
2018-12-20T18:05:55.447Z,6.20
2018-12-20T18:08:23.602Z,6.20
2018-12-20T18:10:51.751Z,6.10
2018-12-20T18:13:20.001Z,6.00
2018-12-20T18:15:48.303Z,5.90
2018-12-20T18:18:16.455Z,6.00
2018-12-20T18:20:44.620Z,6.20
2018-12-20T18:23:12.797Z,6.00
2018-12-20T18:25:41.868Z,6.10
2018-12-20T18:28:10.032Z,6.20
2018-12-20T18:30:38.183Z,6.20
2018-12-20T18:33:06.357Z,6.20
2018-12-20T18:35:35.475Z,6.30
2018-12-20T18:38:03.819Z,6.20
2018-12-20T18:40:32.041Z,6.10
2018-12-20T18:43:04.190Z,6.10
2018-12-20T18:45:32.507Z,6.20
2018-12-20T18:48:00.656Z,6.20
2018-12-20T18:50:28.893Z,6.30
2018-12-20T18:52:57.068Z,6.30
2018-12-20T18:55:25.427Z,6.30
2018-12-20T18:57:53.532Z,6.40
2018-12-20T19:00:21.703Z,6.40
2018-12-20T19:02:49.887Z,6.40
2018-12-20T19:05:18.048Z,6.30
2018-12-20T19:07:46.207Z,6.30
2018-12-20T19:10:14.355Z,6.40
2018-12-20T19:12:42.498Z,6.20
2018-12-20T19:15:10.738Z,6.20
2018-12-20T19:17:38.937Z,6.10
2018-12-20T19:20:15.949Z,6.30
2018-12-20T19:22:39.675Z,6.30
2018-12-20T19:25:08.100Z,6.20
2018-12-20T19:27:38.137Z,6.20
2018-12-20T19:30:09.539Z,6.10
2018-12-20T19:32:37.796Z,6.10
2018-12-20T19:35:07.126Z,6.20
2018-12-20T19:37:36.181Z,6.10
2018-12-20T19:40:07.701Z,6.10
2018-12-20T19:42:35.977Z,6.10
2018-12-20T19:45:05.538Z,6.10
2018-12-20T19:47:33.710Z,6.10
2018-12-20T19:50:05.079Z,6.00
2018-12-20T19:52:32.086Z,6.10
2018-12-20T19:55:00.260Z,6.00
2018-12-20T19:57:28.448Z,6.10
2018-12-20T19:59:57.122Z,6.10
2018-12-20T20:02:26.284Z,6.10
2018-12-20T20:04:54.481Z,6.10
2018-12-20T20:07:23.934Z,6.10
2018-12-20T20:09:52.392Z,6.10
2018-12-20T20:12:20.550Z,6.10
2018-12-20T20:14:49.040Z,6.10
2018-12-20T20:17:17.629Z,6.10
2018-12-20T20:19:45.928Z,6.10
2018-12-20T20:22:15.080Z,6.10
2018-12-20T20:24:44.079Z,6.10
2018-12-20T20:27:12.259Z,6.10
2018-12-20T20:29:40.450Z,6.10
2018-12-20T20:32:08.700Z,6.10
2018-12-20T20:34:36.876Z,6.10
2018-12-20T20:37:05.135Z,6.10
2018-12-20T20:39:33.387Z,6.10
2018-12-20T20:42:02.174Z,6.10
2018-12-20T20:44:30.367Z,6.10
2018-12-20T20:46:59.498Z,6.00
2018-12-20T20:49:27.656Z,6.00
2018-12-20T20:51:55.968Z,6.10
2018-12-20T20:54:24.776Z,6.00
2018-12-20T20:56:52.919Z,6.10
2018-12-20T20:59:21.185Z,6.00
2018-12-20T21:01:49.338Z,6.10
2018-12-20T21:04:17.605Z,6.00
2018-12-20T21:06:47.095Z,6.10
2018-12-20T21:09:15.617Z,6.10
2018-12-20T21:11:43.828Z,6.10
2018-12-20T21:14:12.024Z,6.10
2018-12-20T21:16:40.232Z,6.10
2018-12-20T21:19:08.879Z,6.10
2018-12-20T21:21:37.647Z,6.10
2018-12-20T21:24:06.724Z,6.20
2018-12-20T21:26:35.208Z,6.20
2018-12-20T21:29:04.584Z,6.20
2018-12-20T21:31:33.219Z,6.20
2018-12-20T21:34:01.598Z,6.20
2018-12-20T21:36:30.245Z,6.30
2018-12-20T21:38:58.641Z,6.20
2018-12-20T21:41:26.847Z,6.20
2018-12-20T21:43:55.585Z,6.20
2018-12-20T21:46:24.302Z,6.20
2018-12-20T21:48:52.488Z,6.20
2018-12-20T21:51:20.993Z,6.20
2018-12-20T21:53:54.867Z,6.20
2018-12-20T21:56:20.796Z,6.20
2018-12-20T21:58:49.347Z,6.20
2018-12-20T22:01:19.564Z,6.20
2018-12-20T22:03:47.789Z,6.30
2018-12-20T22:06:16.438Z,6.30
2018-12-20T22:08:45.096Z,6.30
2018-12-20T22:11:13.855Z,6.30
2018-12-20T22:13:43.173Z,6.30
2018-12-20T22:16:11.836Z,6.30
2018-12-20T22:18:40.493Z,6.40
2018-12-20T22:21:09.959Z,6.40
2018-12-20T22:23:38.419Z,6.30
2018-12-20T22:26:06.871Z,6.30
2018-12-20T22:28:35.236Z,6.30
2018-12-20T22:31:03.703Z,6.30
2018-12-20T22:33:33.168Z,6.40
2018-12-20T22:36:01.470Z,6.40
2018-12-20T22:38:30.206Z,6.30
2018-12-20T22:40:58.497Z,6.30
2018-12-20T22:43:27.204Z,6.30
2018-12-20T22:45:55.786Z,6.30
2018-12-20T22:48:24.498Z,6.30
2018-12-20T22:50:56.034Z,6.30
2018-12-20T22:53:23.922Z,6.30
2018-12-20T22:55:52.096Z,6.30
2018-12-20T22:58:20.672Z,6.30
2018-12-20T23:00:55.656Z,6.30
2018-12-20T23:03:23.829Z,6.40
2018-12-20T23:05:52.071Z,6.40
2018-12-20T23:08:20.386Z,6.30
2018-12-20T23:10:48.594Z,6.30
2018-12-20T23:13:16.741Z,6.30
2018-12-20T23:15:44.884Z,6.30
2018-12-20T23:18:13.225Z,6.20
2018-12-20T23:20:41.505Z,6.20
2018-12-20T23:23:09.663Z,6.20
2018-12-20T23:25:37.886Z,6.30
2018-12-20T23:28:06.136Z,6.30
2018-12-20T23:30:35.125Z,6.30
2018-12-20T23:33:03.316Z,6.30
2018-12-20T23:35:31.543Z,6.40
2018-12-20T23:37:59.729Z,6.30
2018-12-20T23:40:27.888Z,6.30
2018-12-20T23:42:56.058Z,6.30
2018-12-20T23:45:24.214Z,6.30
2018-12-20T23:47:53.274Z,6.30
2018-12-20T23:50:22.165Z,6.30
2018-12-20T23:52:50.469Z,6.40
2018-12-20T23:55:18.620Z,6.40
2018-12-20T23:57:46.759Z,6.40
